Time;durP1;ratioP1;P1;durP2;ratioP2;P2;SDS_P1;SDS_P2;PMS_P1;PMS_P2;Temp;Humidity;BMP_temperature;BMP_pressure;BME280_temperature;BME280_humidity;BME280_pressure;Samples;Min_cycle;Max_cycle;Signal;HPM_P1;HPM_P2
2023/07/23 00:02:14;;;;;;;1999.90;999.90;;;15.20;99.90;;;;;;4808695;29;20074;-72
2023/07/23 00:04:40;;;;;;;1999.90;999.90;;;15.10;99.90;;;;;;4822594;29;20051;-72
2023/07/23 00:07:06;;;;;;;1999.90;999.90;;;15.10;99.90;;;;;;4808688;29;20058;-73
2023/07/23 00:09:31;;;;;;;1999.90;999.90;;;15.10;99.90;;;;;;4808938;29;20406;-73
2023/07/23 00:11:57;;;;;;;1999.90;999.90;;;15.10;99.90;;;;;;4824028;29;20062;-72
2023/07/23 00:14:23;;;;;;;1999.90;999.90;;;15.10;99.90;;;;;;4808431;29;20153;-73
2023/07/23 00:16:49;;;;;;;1999.90;999.90;;;15.10;99.90;;;;;;4809289;29;20130;-72
2023/07/23 00:19:19;;;;;;;1999.90;999.90;;;15.10;99.90;;;;;;4808952;29;20046;-72
2023/07/23 00:21:46;;;;;;;1999.90;999.90;;;15.10;99.90;;;;;;4809125;29;20069;-72
2023/07/23 00:24:12;;;;;;;1999.90;999.90;;;15.10;99.90;;;;;;4808414;29;20112;-72
2023/07/23 00:26:37;;;;;;;1999.90;999.90;;;15.10;99.90;;;;;;4822560;29;20434;-72
2023/07/23 00:29:03;;;;;;;1999.90;999.90;;;15.10;99.90;;;;;;4809167;29;20056;-72
2023/07/23 00:31:29;;;;;;;1999.90;999.90;;;15.10;99.90;;;;;;4808611;29;20058;-73
2023/07/23 00:33:55;;;;;;;1999.90;999.90;;;15.10;99.90;;;;;;4809008;29;20137;-72
2023/07/23 00:36:20;;;;;;;1999.90;999.90;;;15.10;99.90;;;;;;4808560;29;20137;-72
2023/07/23 00:38:46;;;;;;;1999.90;999.90;;;15.10;99.90;;;;;;4808810;29;20459;-72
2023/07/23 00:41:12;;;;;;;1999.90;999.90;;;15.10;99.90;;;;;;4808204;29;20054;-73
2023/07/23 00:43:38;;;;;;;1999.90;999.90;;;15.10;99.90;;;;;;4809173;29;20070;-72
2023/07/23 00:46:03;;;;;;;1999.90;999.90;;;15.10;99.90;;;;;;4808816;29;20077;-72
2023/07/23 00:48:29;;;;;;;1999.90;999.90;;;15.10;99.90;;;;;;4809194;29;20055;-73
2023/07/23 00:50:55;;;;;;;1999.90;999.90;;;15.00;99.90;;;;;;4808800;29;20130;-72
2023/07/23 00:53:21;;;;;;;1999.90;999.90;;;15.00;99.90;;;;;;4807885;29;20079;-73
2023/07/23 00:55:48;;;;;;;1999.90;999.90;;;15.00;99.90;;;;;;4809263;29;20051;-73
2023/07/23 00:58:14;;;;;;;1999.90;999.90;;;15.00;99.90;;;;;;4808596;29;20062;-73
2023/07/23 01:00:40;;;;;;;1999.90;999.90;;;14.90;99.90;;;;;;4808202;29;20043;-72
2023/07/23 01:03:06;;;;;;;1999.90;999.90;;;14.90;99.90;;;;;;4808675;29;20071;-72
2023/07/23 01:05:33;;;;;;;1999.90;999.90;;;14.90;99.90;;;;;;4823391;29;20084;-72
2023/07/23 01:07:59;;;;;;;1999.90;999.90;;;14.90;99.90;;;;;;4807917;29;20130;-71
2023/07/23 01:10:26;;;;;;;1999.90;999.90;;;14.90;99.90;;;;;;4807216;29;20067;-72
2023/07/23 01:12:53;;;;;;;1999.90;999.90;;;14.80;99.90;;;;;;4809417;29;20055;-73
2023/07/23 01:15:19;;;;;;;1999.90;999.90;;;14.80;99.90;;;;;;4808546;29;20114;-72
2023/07/23 01:17:46;;;;;;;1999.90;999.90;;;14.80;99.90;;;;;;4809108;29;20562;-72
2023/07/23 01:20:12;;;;;;;1999.90;999.90;;;14.80;99.90;;;;;;4807930;29;20055;-72
2023/07/23 01:22:38;;;;;;;1999.90;999.90;;;14.80;99.90;;;;;;4808028;29;20058;-72
2023/07/23 01:25:04;;;;;;;1999.90;999.90;;;14.70;99.90;;;;;;4822295;29;20058;-72
2023/07/23 01:27:30;;;;;;;1999.90;999.90;;;14.70;99.90;;;;;;4807735;29;20054;-73
2023/07/23 01:29:56;;;;;;;1999.90;999.90;;;14.70;99.90;;;;;;4808833;29;20043;-72
2023/07/23 01:32:22;;;;;;;1999.90;999.90;;;14.70;99.90;;;;;;4807358;29;20403;-72
2023/07/23 01:34:48;;;;;;;1999.90;999.90;;;14.70;99.90;;;;;;4806447;29;20094;-72
2023/07/23 01:37:15;;;;;;;1999.90;999.90;;;14.70;99.90;;;;;;4791783;29;20175;-73
2023/07/23 01:39:42;;;;;;;1999.90;999.90;;;14.80;99.90;;;;;;4807413;29;20073;-72
2023/07/23 01:42:10;;;;;;;1999.90;999.90;;;14.80;99.90;;;;;;4807486;29;20061;-71
2023/07/23 01:44:36;;;;;;;1999.90;999.90;;;14.80;99.90;;;;;;4807457;29;20396;-72
2023/07/23 01:47:01;;;;;;;1999.90;999.90;;;14.80;99.90;;;;;;4806730;29;20046;-71
2023/07/23 01:49:27;;;;;;;1999.90;999.90;;;14.80;99.90;;;;;;4807435;29;20132;-72
2023/07/23 01:51:53;;;;;;;1999.90;999.90;;;14.80;99.90;;;;;;4807210;29;20054;-71
2023/07/23 01:54:19;;;;;;;1999.90;999.90;;;14.80;99.90;;;;;;4805822;29;20377;-73
2023/07/23 01:56:46;;;;;;;1999.90;999.90;;;14.80;99.90;;;;;;4806264;29;20412;-72
2023/07/23 01:59:11;;;;;;;1999.90;999.90;;;14.80;99.90;;;;;;4821817;29;20086;-73
2023/07/23 02:01:37;;;;;;;1999.90;999.90;;;14.80;99.90;;;;;;4821112;29;20086;-72
2023/07/23 02:04:03;;;;;;;1999.90;999.90;;;14.80;99.90;;;;;;4820660;29;20560;-73
2023/07/23 02:06:28;;;;;;;1999.90;999.90;;;14.80;99.90;;;;;;4807125;29;20066;-72
2023/07/23 02:08:54;;;;;;;1999.90;999.90;;;14.80;99.90;;;;;;4806874;29;20487;-73
2023/07/23 02:11:20;;;;;;;1999.90;999.90;;;14.80;99.90;;;;;;4807898;29;20094;-72
2023/07/23 02:13:45;;;;;;;1999.90;999.90;;;14.80;99.90;;;;;;4821878;29;20488;-72
2023/07/23 02:16:18;;;;;;;1999.90;999.90;;;14.80;99.90;;;;;;4807914;29;20058;-73
2023/07/23 02:18:44;;;;;;;1999.90;999.90;;;14.80;99.90;;;;;;4805882;29;20120;-73
2023/07/23 02:21:10;;;;;;;1999.90;999.90;;;14.70;99.90;;;;;;4821579;29;20496;-71
2023/07/23 02:23:35;;;;;;;1999.90;999.90;;;14.70;99.90;;;;;;4805850;29;20095;-71
2023/07/23 02:26:01;;;;;;;1999.90;999.90;;;14.70;99.90;;;;;;4806954;29;20192;-70
2023/07/23 02:28:27;;;;;;;1999.90;999.90;;;14.70;99.90;;;;;;4807416;29;20054;-71
2023/07/23 02:31:00;;;;;;;1999.90;999.90;;;14.70;99.90;;;;;;4821018;29;20498;-71
2023/07/23 02:33:26;;;;;;;;;;;14.70;99.90;;;;;;4809194;29;20187;-72
2023/07/23 02:35:51;;;;;;;1999.90;999.90;;;14.70;99.90;;;;;;4806127;29;20408;-72
2023/07/23 02:38:18;;;;;;;1999.90;999.90;;;14.70;99.90;;;;;;4807361;29;20043;-72
2023/07/23 02:40:43;;;;;;;1999.90;999.90;;;14.70;99.90;;;;;;4807815;29;20138;-71
2023/07/23 02:43:12;;;;;;;1999.90;999.90;;;14.70;99.90;;;;;;4807298;29;20051;-72
2023/07/23 02:45:38;;;;;;;1999.90;999.90;;;14.70;99.90;;;;;;4808000;29;20400;-73
2023/07/23 02:48:05;;;;;;;1999.90;999.90;;;14.70;99.90;;;;;;4791076;29;20051;-73
2023/07/23 02:50:30;;;;;;;1999.90;999.90;;;14.80;99.90;;;;;;4809104;29;20562;-73
2023/07/23 02:52:56;;;;;;;1999.90;999.90;;;14.70;99.90;;;;;;4807600;29;20047;-73
2023/07/23 02:55:24;;;;;;;1999.90;999.90;;;14.80;99.90;;;;;;4808442;29;20058;-73
2023/07/23 02:57:51;;;;;;;1999.90;999.90;;;14.80;99.90;;;;;;4808770;29;20055;-72
2023/07/23 03:00:20;;;;;;;1999.90;999.90;;;14.80;99.90;;;;;;4806797;29;20125;-72
2023/07/23 03:02:47;;;;;;;1999.90;999.90;;;14.80;99.90;;;;;;4808462;29;20051;-72
2023/07/23 03:05:13;;;;;;;1999.90;999.90;;;14.80;99.90;;;;;;4808205;29;20058;-72
2023/07/23 03:07:39;;;;;;;1999.90;999.90;;;14.80;99.90;;;;;;4812057;29;20050;-72
2023/07/23 03:10:05;;;;;;;1999.90;999.90;;;14.80;99.90;;;;;;4809744;29;20086;-71
2023/07/23 03:12:34;;;;;;;1999.90;999.90;;;14.80;99.90;;;;;;4809203;29;20138;-71
2023/07/23 03:15:00;;;;;;;1999.90;999.90;;;14.80;99.90;;;;;;4809977;29;20077;-73
2023/07/23 03:17:26;;;;;;;1999.90;999.90;;;14.80;99.90;;;;;;4809620;29;20051;-72
2023/07/23 03:19:52;;;;;;;1999.90;999.90;;;14.80;99.90;;;;;;4807869;29;20133;-72
2023/07/23 03:22:18;;;;;;;1999.90;999.90;;;14.80;99.90;;;;;;4808270;29;20130;-72
2023/07/23 03:24:45;;;;;;;1999.90;999.90;;;14.80;99.90;;;;;;4809848;29;20105;-73
2023/07/23 03:27:10;;;;;;;1999.90;999.90;;;14.80;99.90;;;;;;4823105;29;20114;-72
2023/07/23 03:29:36;;;;;;;1999.90;999.90;;;14.80;99.90;;;;;;4808243;29;20125;-72
2023/07/23 03:32:02;;;;;;;1999.90;999.90;;;14.80;99.90;;;;;;4809817;29;20499;-72
2023/07/23 03:34:28;;;;;;;1999.90;999.90;;;14.80;99.90;;;;;;4807895;29;20130;-72
2023/07/23 03:36:53;;;;;;;1999.90;999.90;;;14.80;99.90;;;;;;4808716;29;20047;-72
2023/07/23 03:39:19;;;;;;;1999.90;999.90;;;14.80;99.90;;;;;;4823550;29;20047;-72
2023/07/23 03:41:46;;;;;;;1999.90;999.90;;;14.80;99.90;;;;;;4809174;29;20058;-72
2023/07/23 03:44:12;;;;;;;1999.90;999.90;;;14.80;99.90;;;;;;4808583;29;20138;-72
2023/07/23 03:46:42;;;;;;;1999.90;999.90;;;14.80;99.90;;;;;;4808529;29;20137;-72
2023/07/23 03:49:08;;;;;;;1999.90;999.90;;;14.80;99.90;;;;;;4808792;29;20051;-72
2023/07/23 03:51:33;;;;;;;1999.90;999.90;;;14.80;99.90;;;;;;4808431;29;20051;-72
2023/07/23 03:53:59;;;;;;;1999.90;999.90;;;14.80;99.90;;;;;;4822666;29;20111;-72
2023/07/23 03:56:24;;;;;;;1999.90;999.90;;;14.80;99.90;;;;;;4792411;29;20496;-72
2023/07/23 03:58:50;;;;;;;1999.90;999.90;;;14.90;99.90;;;;;;4807443;29;20090;-72
2023/07/23 04:01:16;;;;;;;1999.90;999.90;;;14.90;99.90;;;;;;4807230;29;20051;-72
2023/07/23 04:03:42;;;;;;;1999.90;999.90;;;14.90;99.90;;;;;;4776979;29;20063;-72
2023/07/23 04:06:07;;;;;;;1999.90;999.90;;;14.90;99.90;;;;;;4822388;29;20055;-72
2023/07/23 04:08:33;;;;;;;1999.90;999.90;;;14.90;99.90;;;;;;4808246;29;20055;-72
2023/07/23 04:10:59;;;;;;;1999.90;999.90;;;14.90;99.90;;;;;;4808231;29;20142;-72
2023/07/23 04:13:25;;;;;;;1999.90;999.90;;;14.90;99.90;;;;;;4808216;29;20059;-72
2023/07/23 04:15:50;;;;;;;1999.90;999.90;;;15.00;99.90;;;;;;4807188;29;20046;-72
2023/07/23 04:18:17;;;;;;;1999.90;999.90;;;14.90;99.90;;;;;;4807422;29;20082;-72
2023/07/23 04:20:43;;;;;;;1999.90;999.90;;;14.90;99.90;;;;;;4808055;29;20506;-72
2023/07/23 04:23:09;;;;;;;1999.90;999.90;;;14.90;99.90;;;;;;4822373;29;20111;-72
2023/07/23 04:25:34;;;;;;;1999.90;999.90;;;14.90;99.90;;;;;;4807759;29;20043;-71
2023/07/23 04:28:00;;;;;;;1999.90;999.90;;;14.90;99.90;;;;;;4807876;29;20523;-72
2023/07/23 04:30:27;;;;;;;1999.90;999.90;;;15.00;99.90;;;;;;4807896;29;20138;-72
2023/07/23 04:32:53;;;;;;;1999.90;999.90;;;14.90;99.90;;;;;;4791971;29;20461;-72
2023/07/23 04:35:21;;;;;;;1999.90;999.90;;;14.90;99.90;;;;;;4807843;29;20054;-71
2023/07/23 04:37:46;;;;;;;1999.90;999.90;;;14.90;99.90;;;;;;4807697;29;20057;-71
2023/07/23 04:40:12;;;;;;;1999.90;999.90;;;14.90;99.90;;;;;;4806776;29;20047;-72
2023/07/23 04:42:38;;;;;;;1999.90;999.90;;;14.90;99.90;;;;;;4777722;29;20051;-72
2023/07/23 04:45:04;;;;;;;1999.90;999.90;;;14.90;99.90;;;;;;4806654;29;20112;-72
2023/07/23 04:47:30;;;;;;;1999.90;999.90;;;14.90;99.90;;;;;;4806559;29;20050;-71
2023/07/23 04:49:57;;;;;;;1999.90;999.90;;;14.90;99.90;;;;;;4806941;29;20047;-71
2023/07/23 04:52:23;;;;;;;1999.90;999.90;;;14.90;99.90;;;;;;4807464;29;20196;-71
2023/07/23 04:54:50;;;;;;;1999.90;999.90;;;15.00;99.90;;;;;;4807429;29;20129;-72
2023/07/23 04:57:16;;;;;;;1999.90;999.90;;;15.00;99.90;;;;;;4807318;29;20063;-72
2023/07/23 04:59:41;;;;;;;1999.90;999.90;;;15.00;99.90;;;;;;4821494;29;20043;-71
2023/07/23 05:02:07;;;;;;;1999.90;999.90;;;15.00;99.90;;;;;;4807564;29;20061;-72
2023/07/23 05:04:34;;;;;;;1999.90;999.90;;;15.00;99.90;;;;;;4807227;29;20473;-72
2023/07/23 05:07:00;;;;;;;1999.90;999.90;;;15.00;99.90;;;;;;4807716;29;20069;-72
2023/07/23 05:09:25;;;;;;;1999.90;999.90;;;15.10;99.90;;;;;;4806247;29;20051;-71
2023/07/23 05:11:51;;;;;;;1999.90;999.90;;;15.10;99.90;;;;;;4806022;29;20111;-71
2023/07/23 05:14:16;;;;;;;1999.90;999.90;;;15.10;99.90;;;;;;4807107;29;20054;-71
2023/07/23 05:16:42;;;;;;;1999.90;999.90;;;15.10;99.90;;;;;;4806696;29;20086;-72
2023/07/23 05:19:08;;;;;;;1999.90;999.90;;;15.10;99.90;;;;;;4807040;29;20047;-71
2023/07/23 05:21:36;;;;;;;1999.90;999.90;;;15.10;99.90;;;;;;4807485;29;20059;-72
2023/07/23 05:24:02;;;;;;;1999.90;999.90;;;15.10;99.90;;;;;;4806862;29;20130;-71
2023/07/23 05:26:28;;;;;;;1999.90;999.90;;;15.10;99.90;;;;;;4805575;29;20054;-72
2023/07/23 05:28:54;;;;;;;1999.90;999.90;;;15.10;99.90;;;;;;4807683;29;20101;-72
2023/07/23 05:31:19;;;;;;;1999.90;999.90;;;15.10;99.90;;;;;;4805992;29;20409;-71
2023/07/23 05:33:45;;;;;;;1999.90;999.90;;;15.10;99.90;;;;;;4805696;29;20062;-72
2023/07/23 05:36:10;;;;;;;1999.90;999.90;;;15.10;99.90;;;;;;4806064;29;20057;-72
2023/07/23 05:38:36;;;;;;;1999.90;999.90;;;15.10;99.90;;;;;;4805593;29;20057;-72
2023/07/23 05:41:02;;;;;;;1999.90;999.90;;;15.10;99.90;;;;;;4806340;29;20047;-72
2023/07/23 05:43:29;;;;;;;1999.90;999.90;;;15.00;99.90;;;;;;4805730;29;20054;-71
2023/07/23 05:45:56;;;;;;;1999.90;999.90;;;15.10;99.90;;;;;;4805477;29;20058;-71
2023/07/23 05:48:22;;;;;;;1999.90;999.90;;;15.10;99.90;;;;;;4805685;29;20117;-72
2023/07/23 05:50:48;;;;;;;1999.90;999.90;;;15.10;99.90;;;;;;4806848;29;20086;-72
2023/07/23 05:53:13;;;;;;;1999.90;999.90;;;15.10;99.90;;;;;;4806569;29;20051;-72
2023/07/23 05:55:39;;;;;;;1999.90;999.90;;;15.10;99.90;;;;;;4820823;29;20059;-72
2023/07/23 05:58:07;;;;;;;1999.90;999.90;;;15.10;99.90;;;;;;4805668;29;20061;-72
2023/07/23 06:00:33;;;;;;;1999.90;999.90;;;15.10;99.90;;;;;;4807051;29;20058;-71
2023/07/23 06:02:59;;;;;;;1999.90;999.90;;;15.20;99.90;;;;;;4805314;29;20055;-71
2023/07/23 06:05:24;;;;;;;1999.90;999.90;;;15.20;99.90;;;;;;4805321;29;20047;-71
2023/07/23 06:07:50;;;;;;;1999.90;999.90;;;15.20;99.90;;;;;;4805434;29;20055;-71
2023/07/23 06:10:16;;;;;;;1999.90;999.90;;;15.20;99.90;;;;;;4806427;29;20055;-71
2023/07/23 06:12:42;;;;;;;1999.90;999.90;;;15.20;99.90;;;;;;4806459;29;20133;-72
2023/07/23 06:15:09;;;;;;;1999.90;999.90;;;15.20;99.90;;;;;;4805283;29;20146;-73
2023/07/23 06:17:35;;;;;;;1999.90;999.90;;;15.30;99.90;;;;;;4820216;29;20558;-72
2023/07/23 06:20:00;;;;;;;1999.90;999.90;;;15.30;99.90;;;;;;4806169;29;20086;-72
2023/07/23 06:22:26;;;;;;;1999.90;999.90;;;15.30;99.90;;;;;;4806668;29;20047;-72
2023/07/23 06:24:52;;;;;;;1999.90;999.90;;;15.30;99.90;;;;;;4806273;29;20054;-72
2023/07/23 06:27:17;;;;;;;1999.90;999.90;;;15.30;99.90;;;;;;4804948;29;20054;-72
2023/07/23 06:29:44;;;;;;;1999.90;999.90;;;15.30;99.90;;;;;;4805207;29;20057;-72
2023/07/23 06:32:10;;;;;;;1999.90;999.90;;;15.40;99.90;;;;;;4805823;29;20484;-72
2023/07/23 06:34:36;;;;;;;1999.90;999.90;;;15.40;99.90;;;;;;4805322;29;20055;-72
2023/07/23 06:37:02;;;;;;;1999.90;999.90;;;15.40;99.90;;;;;;4790373;29;20055;-72
2023/07/23 06:39:28;;;;;;;1999.90;999.90;;;15.40;99.90;;;;;;4806149;29;20607;-72
2023/07/23 06:41:53;;;;;;;1999.90;999.90;;;15.40;99.90;;;;;;4807606;29;20051;-72
2023/07/23 06:44:19;;;;;;;1999.90;999.90;;;15.50;99.90;;;;;;4809609;29;20054;-72
2023/07/23 06:46:45;;;;;;;1999.90;999.90;;;15.50;99.90;;;;;;4823713;29;20127;-72
2023/07/23 06:49:12;;;;;;;1999.90;999.90;;;15.60;99.90;;;;;;4809849;29;20051;-72
2023/07/23 06:51:38;;;;;;;1999.90;999.90;;;15.60;99.90;;;;;;4808440;29;20050;-72
2023/07/23 06:54:04;;;;;;;1999.90;999.90;;;15.60;99.90;;;;;;4809505;29;20107;-73
2023/07/23 06:56:30;;;;;;;1999.90;999.90;;;15.60;99.90;;;;;;4808262;29;20054;-73
2023/07/23 06:58:55;;;;;;;1999.90;999.90;;;15.60;99.90;;;;;;4793754;29;20059;-72
2023/07/23 07:01:22;;;;;;;1999.90;999.90;;;15.60;99.90;;;;;;4809412;29;20058;-72
2023/07/23 07:03:47;;;;;;;1999.90;999.90;;;15.70;99.90;;;;;;4809717;29;20059;-72
2023/07/23 07:06:15;;;;;;;1999.90;999.90;;;15.60;99.90;;;;;;4808345;29;20515;-73
2023/07/23 07:08:41;;;;;;;1999.90;999.90;;;15.70;99.90;;;;;;4809246;29;20055;-73
2023/07/23 07:11:09;;;;;;;1999.90;999.90;;;15.70;99.90;;;;;;4808181;29;20055;-71
2023/07/23 07:13:37;;;;;;;1999.90;999.90;;;15.70;99.90;;;;;;4808643;29;20098;-73
2023/07/23 07:16:03;;;;;;;1999.90;999.90;;;15.70;99.90;;;;;;4809276;29;20126;-72
2023/07/23 07:18:28;;;;;;;1999.90;999.90;;;15.70;99.90;;;;;;4808291;29;20142;-72
2023/07/23 07:20:55;;;;;;;1999.90;999.90;;;15.70;99.90;;;;;;4823044;29;20446;-72
2023/07/23 07:23:21;;;;;;;1999.90;999.90;;;15.70;99.90;;;;;;4809425;29;20086;-74
2023/07/23 07:25:47;;;;;;;1999.90;999.90;;;15.70;99.90;;;;;;4807560;29;20595;-75
2023/07/23 07:28:12;;;;;;;1999.90;999.90;;;15.70;99.90;;;;;;4823037;29;20054;-75
2023/07/23 07:30:41;;;;;;;1999.90;999.90;;;15.70;99.90;;;;;;4809726;29;20108;-75
2023/07/23 07:33:07;;;;;;;1999.90;999.90;;;15.70;99.90;;;;;;4823340;29;20050;-75
2023/07/23 07:35:32;;;;;;;1999.90;999.90;;;15.70;99.90;;;;;;4807856;29;20056;-75
2023/07/23 07:37:58;;;;;;;1999.90;999.90;;;15.80;99.90;;;;;;4807661;29;20055;-75
2023/07/23 07:40:24;;;;;;;1999.90;999.90;;;15.80;99.90;;;;;;4822866;29;20051;-75
2023/07/23 07:42:49;;;;;;;1999.90;999.90;;;15.80;99.90;;;;;;4808739;29;20153;-76
2023/07/23 07:45:15;;;;;;;1999.90;999.90;;;15.80;99.90;;;;;;4808480;29;20054;-75
2023/07/23 07:47:41;;;;;;;1999.90;999.90;;;15.80;99.90;;;;;;4792863;29;20459;-76
2023/07/23 07:50:08;;;;;;;1999.90;999.90;;;15.80;99.90;;;;;;4807981;29;20078;-75
2023/07/23 07:52:34;;;;;;;1999.90;999.90;;;15.80;99.90;;;;;;4821409;29;20133;-75
2023/07/23 07:55:00;;;;;;;1999.90;999.90;;;15.80;99.90;;;;;;4808256;29;20103;-75
2023/07/23 07:57:27;;;;;;;1999.90;999.90;;;15.80;99.90;;;;;;4807093;29;20059;-75
2023/07/23 07:59:53;;;;;;;1999.90;999.90;;;15.80;99.90;;;;;;4807378;29;20059;-75
2023/07/23 08:02:19;;;;;;;1999.90;999.90;;;15.80;99.90;;;;;;4806925;29;20146;-75
2023/07/23 08:04:45;;;;;;;1999.90;999.90;;;15.90;99.90;;;;;;4822700;29;20129;-76
2023/07/23 08:07:11;;;;;;;1999.90;999.90;;;15.80;99.90;;;;;;4806784;29;20058;-76
2023/07/23 08:09:41;;;;;;;1999.90;999.90;;;15.90;99.90;;;;;;4807916;29;20086;-78
2023/07/23 08:12:09;;;;;;;1999.90;999.90;;;15.90;99.90;;;;;;4808335;29;20054;-77
2023/07/23 08:14:37;;;;;;;1999.90;999.90;;;15.90;99.90;;;;;;4806895;29;20071;-78
2023/07/23 08:17:03;;;;;;;1999.90;999.90;;;15.90;99.90;;;;;;4822280;29;20054;-78
2023/07/23 08:19:29;;;;;;;1999.90;999.90;;;15.90;99.90;;;;;;4807095;29;20107;-77
2023/07/23 08:21:55;;;;;;;1999.90;999.90;;;15.90;99.90;;;;;;4806701;29;20055;-76
2023/07/23 08:24:21;;;;;;;1999.90;999.90;;;15.90;99.90;;;;;;4792349;29;20465;-76
2023/07/23 08:26:49;;;;;;;1999.90;999.90;;;15.90;99.90;;;;;;4806523;29;20589;-77
2023/07/23 08:29:18;;;;;;;1999.90;999.90;;;15.90;99.90;;;;;;4806608;29;20090;-76
2023/07/23 08:31:44;;;;;;;1999.90;999.90;;;16.00;99.90;;;;;;4807534;29;20081;-77
2023/07/23 08:34:10;;;;;;;1999.90;999.90;;;15.90;99.90;;;;;;4821684;29;20055;-76
2023/07/23 08:36:36;;;;;;;1999.90;999.90;;;15.90;99.90;;;;;;4807393;29;20515;-77
2023/07/23 08:39:04;;;;;;;1999.90;999.90;;;15.90;99.90;;;;;;4791731;29;20051;-77
2023/07/23 08:41:46;;;;;;;1999.90;999.90;;;15.90;99.90;;;;;;4776780;29;20043;-77
2023/07/23 08:44:11;;;;;;;1999.90;999.90;;;15.90;99.90;;;;;;4806105;29;20133;-76
2023/07/23 08:46:46;;;;;;;1999.90;999.90;;;15.90;99.90;;;;;;4821210;29;20189;-77
2023/07/23 08:49:15;;;;;;;1999.90;999.90;;;15.90;99.90;;;;;;4805992;29;20054;-77
2023/07/23 08:51:46;;;;;;;1999.90;999.90;;;15.90;99.90;;;;;;4791347;29;20051;-78
2023/07/23 08:54:14;;;;;;;1999.90;999.90;;;15.90;99.90;;;;;;4806367;29;20051;-77
2023/07/23 08:56:41;;;;;;;1999.90;999.90;;;15.90;99.90;;;;;;4775823;29;20055;-77
2023/07/23 08:59:08;;;;;;;1999.90;999.90;;;15.90;99.90;;;;;;4806374;29;20059;-76
2023/07/23 09:01:36;;;;;;;1999.90;999.90;;;15.90;99.90;;;;;;4791693;29;20050;-76
2023/07/23 09:04:03;;;;;;;1999.90;999.90;;;15.90;99.90;;;;;;4807594;29;20131;-77
2023/07/23 09:06:30;;;;;;;1999.90;999.90;;;15.90;99.90;;;;;;4805678;29;20080;-77
2023/07/23 09:09:07;;;;;;;1999.90;999.90;;;15.90;99.90;;;;;;4805616;29;20067;-78
2023/07/23 09:11:34;;;;;;;1999.90;999.90;;;15.90;99.90;;;;;;4806155;29;20043;-75
2023/07/23 09:14:02;;;;;;;1999.90;999.90;;;15.90;99.90;;;;;;4790872;29;20145;-77
2023/07/23 09:16:28;;;;;;;1999.90;999.90;;;15.90;99.90;;;;;;4805800;29;20063;-77
2023/07/23 09:18:53;;;;;;;1999.90;999.90;;;15.90;99.90;;;;;;4790893;29;20051;-76
2023/07/23 09:21:24;;;;;;;1999.90;999.90;;;15.90;99.90;;;;;;4805861;29;20118;-75
2023/07/23 09:23:51;;;;;;;1999.90;999.90;;;15.90;99.90;;;;;;4805588;29;20055;-78
2023/07/23 09:26:20;;;;;;;1999.90;999.90;;;15.90;99.90;;;;;;4776419;29;20135;-75
2023/07/23 09:28:46;;;;;;;1999.90;999.90;;;15.90;99.90;;;;;;4805647;29;20051;-79
2023/07/23 09:31:18;;;;;;;1999.90;999.90;;;15.90;99.90;;;;;;4806241;29;20051;-73
2023/07/23 09:33:43;;;;;;;1999.90;999.90;;;15.90;99.90;;;;;;4806351;29;20066;-78
2023/07/23 09:36:11;;;;;;;1999.90;999.90;;;15.90;99.90;;;;;;4806168;29;20376;-77
2023/07/23 09:38:39;;;;;;;1999.90;999.90;;;15.90;99.90;;;;;;4806190;29;20057;-74
2023/07/23 09:41:05;;;;;;;1999.90;999.90;;;15.90;99.90;;;;;;4806813;29;20126;-76
2023/07/23 09:43:34;;;;;;;1999.90;999.90;;;15.90;99.90;;;;;;4806569;29;20057;-77
2023/07/23 09:46:00;;;;;;;1999.90;999.90;;;15.90;99.90;;;;;;4806672;29;20047;-77
2023/07/23 09:48:27;;;;;;;1999.90;999.90;;;15.90;99.90;;;;;;4807490;29;20055;-77
2023/07/23 09:50:57;;;;;;;1999.90;999.90;;;15.90;99.90;;;;;;4807211;29;20505;-76
2023/07/23 09:53:23;;;;;;;1999.90;999.90;;;15.90;99.90;;;;;;4805800;29;20141;-75
2023/07/23 09:55:50;;;;;;;1999.90;999.90;;;15.90;99.90;;;;;;4820941;29;20138;-76
2023/07/23 09:58:17;;;;;;;1999.90;999.90;;;16.00;99.90;;;;;;4805312;29;20061;-75
2023/07/23 10:00:44;;;;;;;1999.90;999.90;;;16.00;99.90;;;;;;4820748;29;20059;-76
2023/07/23 10:03:14;;;;;;;1999.90;999.90;;;16.00;99.90;;;;;;4790177;29;20595;-76
2023/07/23 10:05:40;;;;;;;1999.90;999.90;;;16.10;99.90;;;;;;4790701;29;20055;-76
2023/07/23 10:08:07;;;;;;;1999.90;999.90;;;16.10;99.90;;;;;;4775797;29;20093;-76
2023/07/23 10:10:32;;;;;;;1999.90;999.90;;;16.20;99.90;;;;;;4805435;29;20059;-74
2023/07/23 10:12:58;;;;;;;1999.90;999.90;;;16.10;99.90;;;;;;4806563;29;20055;-73
2023/07/23 10:15:24;;;;;;;1999.90;999.90;;;16.20;99.90;;;;;;4821502;29;20055;-70
2023/07/23 10:17:56;;;;;;;1999.90;999.90;;;16.20;99.90;;;;;;4808365;29;20095;-75
2023/07/23 10:20:22;;;;;;;1999.90;999.90;;;16.20;99.90;;;;;;4809580;29;20053;-73
2023/07/23 10:22:48;;;;;;;1999.90;999.90;;;16.20;99.90;;;;;;4808962;29;20116;-75
2023/07/23 10:25:32;;;;;;;1999.90;999.90;;;16.20;99.90;;;;;;4810082;29;20062;-75
2023/07/23 10:28:05;;;;;;;1999.90;999.90;;;16.20;99.90;;;;;;4810380;29;20054;-75
2023/07/23 10:30:33;;;;;;;1999.90;999.90;;;16.20;99.90;;;;;;4810084;29;20142;-76
2023/07/23 10:33:11;;;;;;;1999.90;999.90;;;16.10;99.90;;;;;;4808963;29;20133;-75
2023/07/23 10:35:55;;;;;;;1999.90;999.90;;;16.10;99.90;;;;;;4824135;29;20046;-76
2023/07/23 10:38:22;;;;;;;1999.90;999.90;;;16.20;99.90;;;;;;4823857;29;20080;-76
2023/07/23 10:40:48;;;;;;;1999.90;999.90;;;16.20;99.90;;;;;;4809862;29;20065;-76
2023/07/23 10:43:14;;;;;;;1999.90;999.90;;;16.10;99.90;;;;;;4810629;29;20059;-76
2023/07/23 10:46:11;;;;;;;1999.90;999.90;;;16.10;99.90;;;;;;4809624;29;20058;-76
2023/07/23 10:48:44;;;;;;;1999.90;999.90;;;16.10;99.90;;;;;;4794398;29;20197;-75
2023/07/23 10:51:12;;;;;;;1999.90;999.90;;;16.20;99.90;;;;;;4809019;29;20476;-76
2023/07/23 10:54:02;;;;;;;1999.90;999.90;;;16.10;99.90;;;;;;4808183;29;20043;-76
2023/07/23 10:56:39;;;;;;;1999.90;999.90;;;16.20;99.90;;;;;;4802349;29;20070;-75
2023/07/23 10:59:14;;;;;;;1999.90;999.90;;;16.20;99.90;;;;;;4823126;29;20456;-76
2023/07/23 11:01:42;;;;;;;1999.90;999.90;;;16.20;99.90;;;;;;4809281;29;20097;-76
2023/07/23 11:04:10;;;;;;;1999.90;999.90;;;16.20;99.90;;;;;;4793235;29;20430;-76
2023/07/23 11:06:37;;;;;;;1999.90;999.90;;;16.20;99.90;;;;;;4792961;29;20088;-77
2023/07/23 11:09:05;;;;;;;1999.90;999.90;;;16.20;99.90;;;;;;4793298;29;20065;-76
2023/07/23 11:11:36;;;;;;;1999.90;999.90;;;16.30;99.90;;;;;;4808723;29;20504;-77
2023/07/23 11:14:03;;;;;;;1999.90;999.90;;;16.30;99.90;;;;;;4808034;29;20094;-75
2023/07/23 11:16:34;;;;;;;1999.90;999.90;;;16.30;99.90;;;;;;4793095;29;20055;-76
2023/07/23 11:19:01;;;;;;;1999.90;999.90;;;16.30;99.90;;;;;;4809036;29;20457;-75
2023/07/23 11:21:27;;;;;;;1999.90;999.90;;;16.30;99.90;;;;;;4808789;29;20051;-73
2023/07/23 11:23:54;;;;;;;1999.90;999.90;;;16.30;99.90;;;;;;4808219;29;20120;-74
2023/07/23 11:26:21;;;;;;;1999.90;999.90;;;16.30;99.90;;;;;;4808873;29;20082;-75
2023/07/23 11:28:47;;;;;;;1999.90;999.90;;;16.40;99.90;;;;;;4807470;29;20133;-75
2023/07/23 11:31:13;;;;;;;1999.90;999.90;;;16.40;99.90;;;;;;4808650;29;20137;-74
2023/07/23 11:33:39;;;;;;;1999.90;999.90;;;16.40;99.90;;;;;;4807778;29;20058;-76
2023/07/23 11:36:05;;;;;;;1999.90;999.90;;;16.40;99.90;;;;;;4808622;29;20291;-76
2023/07/23 11:38:32;;;;;;;1999.90;999.90;;;16.50;99.90;;;;;;4808877;29;20054;-76
2023/07/23 11:40:59;;;;;;;1999.90;999.90;;;16.50;99.90;;;;;;4807590;29;20094;-73
2023/07/23 11:43:25;;;;;;;1999.90;999.90;;;16.50;99.90;;;;;;4808906;29;20130;-76
2023/07/23 11:45:51;;;;;;;1999.90;999.90;;;16.50;99.90;;;;;;4808341;29;20118;-74
2023/07/23 11:48:22;;;;;;;1999.90;999.90;;;16.50;99.90;;;;;;4807431;29;20192;-75
2023/07/23 11:50:49;;;;;;;1999.90;999.90;;;16.50;99.90;;;;;;4807168;29;20112;-76
2023/07/23 11:53:33;;;;;;;1999.90;999.90;;;16.50;99.90;;;;;;4808319;29;20161;-76
2023/07/23 11:56:13;;;;;;;1999.90;999.90;;;16.60;99.90;;;;;;4822638;29;20079;-76
2023/07/23 11:58:39;;;;;;;1999.90;999.90;;;16.60;99.90;;;;;;4807538;29;20062;-76